createdAt,value
2023-05-16T00:01:30.332Z,7.57
2023-05-16T00:03:57.785Z,8.48
2023-05-16T00:06:25.576Z,4.40
2023-05-16T00:08:52.789Z,2.42
2023-05-16T00:11:19.940Z,6.57
2023-05-16T00:13:47.817Z,5.03
2023-05-16T00:16:15.330Z,4.15
2023-05-16T00:18:45.639Z,4.10
2023-05-16T00:21:13.804Z,4.35
2023-05-16T00:23:40.984Z,4.05
2023-05-16T00:26:08.086Z,4.88
2023-05-16T00:28:35.290Z,4.90
2023-05-16T00:31:02.434Z,4.20
2023-05-16T00:33:29.571Z,3.53
2023-05-16T00:35:58.571Z,4.00
2023-05-16T00:38:26.337Z,4.18
2023-05-16T00:40:53.923Z,3.72
2023-05-16T00:43:21.046Z,4.65
2023-05-16T00:45:51.208Z,6.53
2023-05-16T00:48:19.330Z,3.45
2023-05-16T00:50:46.892Z,4.38
2023-05-16T00:53:14.088Z,4.18
2023-05-16T00:55:42.456Z,4.00
2023-05-16T00:58:11.542Z,7.65
2023-05-16T01:00:38.785Z,5.13
2023-05-16T01:03:06.608Z,3.55
2023-05-16T01:05:34.098Z,4.72
2023-05-16T01:08:01.213Z,5.00
2023-05-16T01:10:39.702Z,5.68
2023-05-16T01:13:18.507Z,3.35
2023-05-16T01:15:56.639Z,5.72
2023-05-16T01:18:29.974Z,4.90
2023-05-16T01:21:04.102Z,4.20
2023-05-16T01:23:52.080Z,3.70
2023-05-16T01:26:25.110Z,6.72
2023-05-16T01:28:53.246Z,8.35
2023-05-16T01:31:21.674Z,3.97
2023-05-16T01:33:50.667Z,5.10
2023-05-16T01:36:37.265Z,4.05
2023-05-16T01:39:26.141Z,5.13
2023-05-16T01:42:18.055Z,4.10
2023-05-16T01:44:55.942Z,7.93
2023-05-16T01:47:25.592Z,2.90
2023-05-16T01:50:09.529Z,9.82
2023-05-16T01:55:50.529Z,5.82
2023-05-16T01:58:21.393Z,4.03
2023-05-16T02:00:48.608Z,4.45
2023-05-16T02:03:15.876Z,3.30
2023-05-16T02:05:43.287Z,5.55
2023-05-16T02:08:14.137Z,7.53
2023-05-16T02:10:42.245Z,2.35
2023-05-16T02:13:09.642Z,5.78
2023-05-16T02:15:37.162Z,5.13
2023-05-16T02:18:04.550Z,5.35
2023-05-16T02:20:31.812Z,4.20
2023-05-16T02:22:59.127Z,5.60
2023-05-16T02:25:26.570Z,3.42
2023-05-16T02:27:53.952Z,5.88
2023-05-16T02:30:21.128Z,5.28
2023-05-16T02:32:49.258Z,5.00
2023-05-16T02:35:17.552Z,4.55
2023-05-16T02:37:44.832Z,4.47
2023-05-16T02:40:12.742Z,4.80
2023-05-16T02:42:39.891Z,4.65
2023-05-16T02:45:07.364Z,5.63
2023-05-16T02:47:34.468Z,6.03
2023-05-16T02:50:01.733Z,3.92
2023-05-16T02:52:29.212Z,6.10
2023-05-16T02:55:16.005Z,2.90
2023-05-16T02:57:43.840Z,3.95
2023-05-16T03:00:15.190Z,3.33
2023-05-16T03:02:44.130Z,5.13
2023-05-16T03:05:11.673Z,4.68
2023-05-16T03:07:39.694Z,2.97
2023-05-16T03:10:07.491Z,7.70
2023-05-16T03:12:34.611Z,4.63
2023-05-16T03:15:02.020Z,3.22
2023-05-16T03:17:29.986Z,5.00
2023-05-16T03:19:57.697Z,3.17
2023-05-16T03:22:24.843Z,4.50
2023-05-16T03:24:52.273Z,2.83
2023-05-16T03:27:19.446Z,3.65
2023-05-16T03:29:46.580Z,3.58
2023-05-16T03:32:13.861Z,4.80
2023-05-16T03:34:41.079Z,4.28
2023-05-16T03:37:08.395Z,5.25
2023-05-16T03:39:35.876Z,5.00
2023-05-16T03:42:03.156Z,3.22
2023-05-16T03:44:30.488Z,5.93
2023-05-16T03:46:57.623Z,4.40
2023-05-16T03:49:30.778Z,6.45
2023-05-16T03:51:58.110Z,5.53
2023-05-16T03:54:25.197Z,6.63
2023-05-16T03:56:52.374Z,5.03
2023-05-16T03:59:19.535Z,5.43
2023-05-16T04:01:46.970Z,6.13
2023-05-16T04:04:14.371Z,3.83
2023-05-16T04:06:41.586Z,6.13
2023-05-16T04:09:08.654Z,6.47
2023-05-16T04:11:36.540Z,4.45
2023-05-16T04:14:03.798Z,6.93
2023-05-16T04:16:31.011Z,5.70
2023-05-16T04:18:58.366Z,8.13
2023-05-16T04:21:25.753Z,7.95
2023-05-16T04:23:52.968Z,6.20
2023-05-16T04:26:21.967Z,7.53
2023-05-16T04:28:49.132Z,6.45
2023-05-16T04:31:16.626Z,5.63
2023-05-16T04:33:43.952Z,5.60
2023-05-16T04:36:11.177Z,5.78
2023-05-16T04:38:38.351Z,7.80
2023-05-16T04:41:05.600Z,6.97
2023-05-16T04:43:32.834Z,4.53
2023-05-16T04:45:59.943Z,9.48
2023-05-16T04:48:27.558Z,5.45
2023-05-16T04:50:54.768Z,6.55
2023-05-16T04:53:21.907Z,7.50
2023-05-16T04:55:49.160Z,6.03
2023-05-16T04:58:16.435Z,12.35
2023-05-16T05:00:43.521Z,8.05
2023-05-16T05:03:10.778Z,7.35
2023-05-16T05:05:38.086Z,6.80
2023-05-16T05:08:05.543Z,6.72
2023-05-16T05:10:32.644Z,5.45
2023-05-16T05:12:59.822Z,7.03
2023-05-16T05:15:27.210Z,3.90
2023-05-16T05:17:54.754Z,4.18
2023-05-16T05:20:24.823Z,9.50
2023-05-16T05:22:52.021Z,4.10
2023-05-16T05:25:19.340Z,8.68
2023-05-16T05:27:47.082Z,6.72
2023-05-16T05:30:14.582Z,6.90
2023-05-16T05:32:41.928Z,6.85
2023-05-16T05:35:09.403Z,6.40
2023-05-16T05:37:36.629Z,7.85
2023-05-16T05:40:04.248Z,4.25
2023-05-16T05:42:32.110Z,5.15
2023-05-16T05:44:59.358Z,9.20
2023-05-16T05:47:26.587Z,5.93
2023-05-16T05:49:53.817Z,6.13
2023-05-16T05:52:21.390Z,4.55
2023-05-16T05:54:48.985Z,6.45
2023-05-16T05:57:16.243Z,6.72
2023-05-16T05:59:43.345Z,6.40
2023-05-16T06:02:11.026Z,7.10
2023-05-16T06:04:38.866Z,6.38
2023-05-16T06:07:06.205Z,9.15
2023-05-16T06:09:33.536Z,6.50
2023-05-16T06:12:00.894Z,7.75
2023-05-16T06:14:28.161Z,8.73
2023-05-16T06:16:55.597Z,7.47
2023-05-16T06:19:23.943Z,5.75
2023-05-16T06:21:51.264Z,6.82
2023-05-16T06:24:18.357Z,7.30
2023-05-16T06:26:49.613Z,10.32
2023-05-16T06:29:17.611Z,7.00
2023-05-16T06:31:46.499Z,10.95
2023-05-16T06:34:13.718Z,6.47
2023-05-16T06:36:40.947Z,9.05
2023-05-16T06:39:08.186Z,9.13
2023-05-16T06:41:35.484Z,3.97
2023-05-16T06:44:05.132Z,5.85
2023-05-16T06:46:32.929Z,10.57
2023-05-16T06:49:00.274Z,11.05
2023-05-16T06:51:27.451Z,8.98
2023-05-16T06:53:54.598Z,8.40
2023-05-16T06:56:22.147Z,7.90
2023-05-16T06:58:50.091Z,8.38
2023-05-16T07:01:17.438Z,8.55
2023-05-16T07:03:44.775Z,6.75
2023-05-16T07:06:12.133Z,8.93
2023-05-16T07:08:39.379Z,7.60
2023-05-16T07:11:06.784Z,6.65
2023-05-16T07:13:35.938Z,8.55
2023-05-16T07:16:03.923Z,7.70
2023-05-16T07:18:31.317Z,7.78
2023-05-16T07:20:58.668Z,9.10
2023-05-16T07:23:25.999Z,6.38
2023-05-16T07:25:53.458Z,6.28
2023-05-16T07:28:22.265Z,8.25
2023-05-16T07:30:49.648Z,11.73
2023-05-16T07:33:16.828Z,5.25
2023-05-16T07:35:44.241Z,7.45
2023-05-16T07:38:11.973Z,6.60
2023-05-16T07:40:39.132Z,9.32
2023-05-16T07:43:06.233Z,7.50
2023-05-16T07:45:33.415Z,8.10
2023-05-16T07:48:00.761Z,7.72
2023-05-16T07:50:28.013Z,8.43
2023-05-16T07:52:55.364Z,8.18
2023-05-16T07:55:22.596Z,8.63
2023-05-16T07:57:50.634Z,8.05
2023-05-16T08:00:18.590Z,7.40
2023-05-16T08:02:45.991Z,7.38
2023-05-16T08:05:13.289Z,6.75
2023-05-16T08:07:40.502Z,7.97
2023-05-16T08:10:08.245Z,6.30
2023-05-16T08:12:35.516Z,11.65
2023-05-16T08:15:03.685Z,6.40
2023-05-16T08:17:30.970Z,10.05
2023-05-16T08:20:01.565Z,5.63
2023-05-16T08:22:28.764Z,6.65
2023-05-16T08:25:00.635Z,8.30
2023-05-16T08:27:29.733Z,6.25
2023-05-16T08:29:57.028Z,6.13
2023-05-16T08:32:24.148Z,8.68
2023-05-16T08:34:51.297Z,7.18
2023-05-16T08:37:18.465Z,8.05
2023-05-16T08:39:46.311Z,5.85
2023-05-16T08:42:13.768Z,8.65
2023-05-16T08:44:41.155Z,7.15
2023-05-16T08:47:21.696Z,4.50
2023-05-16T08:49:51.400Z,5.13
2023-05-16T08:52:21.631Z,7.43
2023-05-16T08:55:01.963Z,6.57
2023-05-16T08:57:38.104Z,7.75
2023-05-16T09:00:12.237Z,6.40
2023-05-16T09:02:44.402Z,4.68
2023-05-16T09:05:14.100Z,8.73
2023-05-16T09:07:43.016Z,7.28
2023-05-16T09:10:11.312Z,8.35
2023-05-16T09:12:40.607Z,6.70
2023-05-16T09:15:10.929Z,8.20
2023-05-16T09:17:44.492Z,5.13
2023-05-16T09:20:22.349Z,4.55
2023-05-16T09:22:58.054Z,5.18
2023-05-16T09:25:31.086Z,8.68
2023-05-16T09:28:02.106Z,6.95
2023-05-16T09:30:32.276Z,6.05
2023-05-16T09:33:00.088Z,7.05
2023-05-16T09:35:43.349Z,5.13
2023-05-16T09:38:17.837Z,6.70
2023-05-16T09:40:45.805Z,6.05
2023-05-16T09:43:16.930Z,5.65
2023-05-16T09:45:49.422Z,5.32
2023-05-16T09:48:18.312Z,7.18
2023-05-16T09:50:55.135Z,4.10
2023-05-16T09:53:27.587Z,5.43
2023-05-16T09:56:05.358Z,4.85
2023-05-16T09:58:33.973Z,8.90
2023-05-16T10:01:02.469Z,7.72
2023-05-16T10:03:30.431Z,3.50
2023-05-16T10:05:58.188Z,6.00
2023-05-16T10:08:26.823Z,7.18
2023-05-16T10:10:56.664Z,5.68
2023-05-16T10:13:29.710Z,3.22
2023-05-16T10:15:58.409Z,6.90
2023-05-16T10:18:30.510Z,5.55
2023-05-16T10:21:03.957Z,7.22
2023-05-16T10:23:33.213Z,5.28
2023-05-16T10:26:04.319Z,5.68
2023-05-16T10:28:32.511Z,5.28
2023-05-16T10:31:01.548Z,7.45
2023-05-16T10:33:29.417Z,4.65
2023-05-16T10:35:57.288Z,4.00
2023-05-16T10:38:25.438Z,5.00
2023-05-16T10:40:53.018Z,6.57
2023-05-16T10:43:27.975Z,9.32
2023-05-16T10:45:57.199Z,5.72
2023-05-16T10:48:39.198Z,4.15
2023-05-16T10:51:33.841Z,4.80
2023-05-16T10:54:10.918Z,4.70
2023-05-16T10:56:38.841Z,4.55
2023-05-16T10:59:24.873Z,5.43
2023-05-16T11:01:56.740Z,5.10
2023-05-16T11:04:24.307Z,6.05
2023-05-16T11:06:53.603Z,4.75
2023-05-16T11:09:27.625Z,7.43
2023-05-16T11:11:57.855Z,9.45
2023-05-16T11:14:32.774Z,3.30
2023-05-16T11:17:03.492Z,4.90
2023-05-16T11:19:34.160Z,3.97
2023-05-16T11:22:17.097Z,5.45
2023-05-16T11:24:54.843Z,2.72
2023-05-16T11:27:28.036Z,4.95
2023-05-16T11:30:02.583Z,4.70
2023-05-16T11:32:31.608Z,5.40
2023-05-16T11:34:59.442Z,4.55
2023-05-16T11:37:26.681Z,7.60
2023-05-16T11:39:54.481Z,5.32
2023-05-16T11:42:22.097Z,4.32
2023-05-16T11:44:49.321Z,3.60
2023-05-16T11:47:16.638Z,4.72
2023-05-16T11:49:44.061Z,1.65
2023-05-16T11:52:11.523Z,4.97
2023-05-16T11:54:40.609Z,4.43
2023-05-16T11:57:09.462Z,4.30
2023-05-16T11:59:37.431Z,5.90
2023-05-16T12:02:05.905Z,4.10
2023-05-16T12:04:33.452Z,4.95
2023-05-16T12:07:02.101Z,32.60
2023-05-16T12:09:29.378Z,4.07
2023-05-16T12:11:56.909Z,7.50
2023-05-16T12:14:25.876Z,7.45
2023-05-16T12:16:53.511Z,5.97
2023-05-16T12:19:21.539Z,7.15
2023-05-16T12:21:52.007Z,5.30
2023-05-16T12:24:19.160Z,4.13
2023-05-16T12:26:46.529Z,3.08
2023-05-16T12:29:13.915Z,4.35
2023-05-16T12:31:42.068Z,4.25
2023-05-16T12:34:19.446Z,5.15
2023-05-16T12:36:51.771Z,3.47
2023-05-16T12:41:47.568Z,3.65
2023-05-16T12:44:19.893Z,5.13
2023-05-16T12:46:51.966Z,4.65
2023-05-16T12:51:55.171Z,3.15
2023-05-16T12:54:23.253Z,5.60
2023-05-16T12:56:50.695Z,4.43
2023-05-16T12:59:19.501Z,4.53
2023-05-16T13:01:47.158Z,5.47
2023-05-16T13:04:19.055Z,2.97
2023-05-16T13:06:58.734Z,5.03
2023-05-16T13:09:31.093Z,7.32
2023-05-16T13:11:59.826Z,4.63
2023-05-16T13:14:27.239Z,6.53
2023-05-16T13:16:54.454Z,5.55
2023-05-16T13:19:23.430Z,4.38
2023-05-16T13:21:50.649Z,5.90
2023-05-16T13:24:17.801Z,4.47
2023-05-16T13:26:45.086Z,4.00
2023-05-16T13:29:12.403Z,2.92
2023-05-16T13:31:39.703Z,6.97
2023-05-16T13:34:07.124Z,5.50
2023-05-16T13:36:49.245Z,3.83
2023-05-16T13:39:20.074Z,4.88
2023-05-16T13:41:49.151Z,4.72
2023-05-16T13:44:16.992Z,7.60
2023-05-16T13:46:44.980Z,5.53
2023-05-16T13:49:12.412Z,7.05
2023-05-16T13:51:39.598Z,2.35
2023-05-16T13:54:06.804Z,6.15
2023-05-16T13:56:34.443Z,3.92
2023-05-16T13:59:06.379Z,2.42
2023-05-16T14:01:34.591Z,4.15
2023-05-16T14:04:02.400Z,8.55
2023-05-16T14:06:29.613Z,7.78
2023-05-16T14:08:56.811Z,5.28
2023-05-16T14:11:29.251Z,4.32
2023-05-16T14:13:57.678Z,5.80
2023-05-16T14:16:25.095Z,7.07
2023-05-16T14:18:52.517Z,5.55
2023-05-16T14:21:19.891Z,4.30
2023-05-16T14:23:47.121Z,5.75
2023-05-16T14:26:15.304Z,6.65
2023-05-16T14:28:42.600Z,3.20
2023-05-16T14:31:09.877Z,5.70
2023-05-16T14:33:37.094Z,4.60
2023-05-16T14:36:06.494Z,29.75
2023-05-16T14:38:35.245Z,4.65
2023-05-16T14:41:02.986Z,4.28
2023-05-16T14:43:30.303Z,5.22
2023-05-16T14:45:57.526Z,6.45
2023-05-16T14:48:24.960Z,9.40
2023-05-16T14:50:53.190Z,5.57
2023-05-16T14:53:21.799Z,6.35
2023-05-16T14:55:49.814Z,8.50
2023-05-16T14:58:17.097Z,6.80
2023-05-16T15:00:44.352Z,7.57
2023-05-16T15:03:15.035Z,6.82
2023-05-16T15:05:45.716Z,5.25
2023-05-16T15:08:13.180Z,5.50
2023-05-16T15:10:40.468Z,7.13
2023-05-16T15:13:07.973Z,5.88
2023-05-16T15:15:35.507Z,5.47
2023-05-16T15:18:02.761Z,6.03
2023-05-16T15:20:31.235Z,8.77
2023-05-16T15:22:59.178Z,5.68
2023-05-16T15:25:26.845Z,6.50
2023-05-16T15:27:55.808Z,8.90
2023-05-16T15:30:23.503Z,6.38
2023-05-16T15:32:50.764Z,5.93
2023-05-16T15:35:18.192Z,9.43
2023-05-16T15:37:45.497Z,5.82
2023-05-16T15:40:13.531Z,8.93
2023-05-16T15:42:44.323Z,7.57
2023-05-16T15:45:12.620Z,6.10
2023-05-16T15:47:41.755Z,6.25
2023-05-16T15:50:09.571Z,10.02
2023-05-16T15:52:36.789Z,11.00
2023-05-16T15:55:04.440Z,11.65
2023-05-16T15:57:31.710Z,7.90
2023-05-16T15:59:59.057Z,9.52
2023-05-16T16:02:26.403Z,11.18
2023-05-16T16:04:54.255Z,9.95
2023-05-16T16:07:21.589Z,8.60
2023-05-16T16:09:48.858Z,11.57
2023-05-16T16:12:16.135Z,7.43
2023-05-16T16:14:43.569Z,10.27
2023-05-16T16:17:10.921Z,11.68
2023-05-16T16:19:38.123Z,10.95
2023-05-16T16:22:05.463Z,8.63
2023-05-16T16:24:32.669Z,9.65
2023-05-16T16:26:59.835Z,14.30
2023-05-16T16:29:27.593Z,11.15
2023-05-16T16:31:55.178Z,8.00
2023-05-16T16:34:23.328Z,8.32
2023-05-16T16:36:50.747Z,9.38
2023-05-16T16:39:18.365Z,12.82
2023-05-16T16:41:45.522Z,12.85
2023-05-16T16:44:13.555Z,12.00
2023-05-16T16:46:41.114Z,10.70
2023-05-16T16:49:08.357Z,10.32
2023-05-16T16:51:35.941Z,10.57
2023-05-16T16:54:03.268Z,11.45
2023-05-16T16:56:30.760Z,10.15
2023-05-16T16:58:57.944Z,7.82
2023-05-16T17:01:27.635Z,16.13
2023-05-16T17:03:56.392Z,10.77
2023-05-16T17:06:23.828Z,10.95
2023-05-16T17:08:51.092Z,8.98
2023-05-16T17:11:22.930Z,9.00
2023-05-16T17:13:51.255Z,10.93
2023-05-16T17:16:18.674Z,13.75
2023-05-16T17:18:45.981Z,10.75
2023-05-16T17:21:13.402Z,13.13
2023-05-16T17:23:43.910Z,10.32
2023-05-16T17:26:13.573Z,9.60
2023-05-16T17:28:41.322Z,10.98
2023-05-16T17:31:08.525Z,11.63
2023-05-16T17:33:36.126Z,10.35
2023-05-16T17:36:03.504Z,10.18
2023-05-16T17:38:32.103Z,10.55
2023-05-16T17:40:59.403Z,10.32
2023-05-16T17:43:26.697Z,12.90
2023-05-16T17:45:53.883Z,15.00
2023-05-16T17:48:21.174Z,12.82
2023-05-16T17:50:48.518Z,9.38
2023-05-16T17:53:16.046Z,11.48
2023-05-16T17:55:43.351Z,9.93
2023-05-16T17:58:10.621Z,8.98
2023-05-16T18:00:38.494Z,12.13
2023-05-16T18:03:06.983Z,11.02
2023-05-16T18:05:34.779Z,11.02
2023-05-16T18:08:03.060Z,10.20
2023-05-16T18:10:36.852Z,11.63
2023-05-16T18:13:17.660Z,7.78
2023-05-16T18:15:45.132Z,8.27
2023-05-16T18:18:12.918Z,8.13
2023-05-16T18:20:40.985Z,14.00
2023-05-16T18:23:08.620Z,11.52
2023-05-16T18:25:35.948Z,11.20
2023-05-16T18:28:03.739Z,11.68
2023-05-16T18:30:30.962Z,9.20
2023-05-16T18:32:59.487Z,9.93
2023-05-16T18:35:28.374Z,8.63
2023-05-16T18:37:56.002Z,11.93
2023-05-16T18:40:23.427Z,8.05
2023-05-16T18:42:50.933Z,7.93
2023-05-16T18:45:18.341Z,9.55
2023-05-16T18:47:46.102Z,9.57
2023-05-16T18:50:13.611Z,10.85
2023-05-16T18:52:41.618Z,12.32
2023-05-16T18:55:09.459Z,8.98
2023-05-16T18:57:36.725Z,11.10
2023-05-16T19:00:05.029Z,8.75
2023-05-16T19:02:41.501Z,11.98
2023-05-16T19:05:10.823Z,10.52
2023-05-16T19:07:38.282Z,11.98
2023-05-16T19:10:06.481Z,13.35
2023-05-16T19:12:33.691Z,9.05
2023-05-16T19:15:00.991Z,11.90
2023-05-16T19:17:28.159Z,9.02
2023-05-16T19:19:55.759Z,8.00
2023-05-16T19:22:23.544Z,10.40
2023-05-16T19:24:50.782Z,7.07
2023-05-16T19:27:18.000Z,10.68
2023-05-16T19:29:45.251Z,12.65
2023-05-16T19:32:12.457Z,10.80
2023-05-16T19:34:40.732Z,13.35
2023-05-16T19:37:08.943Z,11.35
2023-05-16T19:39:36.176Z,9.82
2023-05-16T19:42:07.313Z,11.45
2023-05-16T19:44:35.313Z,9.23
2023-05-16T19:47:02.848Z,13.32
2023-05-16T19:49:31.830Z,11.80
2023-05-16T19:51:59.350Z,10.85
2023-05-16T19:54:26.538Z,9.30
2023-05-16T19:56:54.085Z,9.57
2023-05-16T19:59:22.521Z,10.57
2023-05-16T20:01:49.732Z,15.25
2023-05-16T20:04:17.306Z,10.00
2023-05-16T20:06:44.580Z,10.75
2023-05-16T20:09:11.870Z,10.90
2023-05-16T20:11:39.627Z,8.57
2023-05-16T20:14:06.900Z,12.27
2023-05-16T20:16:34.140Z,9.82
2023-05-16T20:19:02.217Z,10.68
2023-05-16T20:21:29.562Z,10.70
2023-05-16T20:23:56.769Z,11.07
2023-05-16T20:26:23.949Z,9.38
2023-05-16T20:28:51.230Z,7.65
2023-05-16T20:31:18.466Z,6.03
2023-05-16T20:33:47.029Z,9.38
2023-05-16T20:36:14.403Z,6.72
2023-05-16T20:38:41.745Z,11.68
2023-05-16T20:41:08.932Z,6.93
2023-05-16T20:43:36.134Z,8.35
2023-05-16T20:46:03.525Z,8.90
2023-05-16T20:48:31.500Z,8.65
2023-05-16T20:50:58.953Z,9.65
2023-05-16T20:53:26.275Z,9.85
2023-05-16T20:55:53.521Z,17.05
2023-05-16T20:58:20.780Z,20.10
2023-05-16T21:00:48.163Z,17.55
2023-05-16T21:03:15.532Z,20.02
2023-05-16T21:05:42.840Z,18.98
2023-05-16T21:08:10.060Z,16.25
2023-05-16T21:10:37.361Z,18.55
2023-05-16T21:13:04.602Z,20.23
2023-05-16T21:15:31.810Z,22.70
2023-05-16T21:17:59.285Z,23.45
2023-05-16T21:20:30.074Z,26.33
2023-05-16T21:22:57.552Z,26.75
2023-05-16T21:25:24.822Z,20.88
2023-05-16T21:27:52.156Z,18.95
2023-05-16T21:30:19.485Z,16.15
2023-05-16T21:32:46.998Z,18.83
2023-05-16T21:35:14.372Z,15.18
2023-05-16T21:37:41.587Z,11.80
2023-05-16T21:40:09.549Z,11.80
2023-05-16T21:42:36.864Z,12.60
2023-05-16T21:45:04.453Z,9.63
2023-05-16T21:47:31.903Z,11.88
2023-05-16T21:49:59.369Z,10.40
2023-05-16T21:52:27.303Z,9.30
2023-05-16T21:54:54.796Z,9.05
2023-05-16T21:57:22.073Z,12.15
2023-05-16T21:59:50.691Z,11.35
2023-05-16T22:02:22.748Z,10.55
2023-05-16T22:04:50.945Z,12.40
2023-05-16T22:07:18.966Z,10.48
2023-05-16T22:09:50.801Z,11.80
2023-05-16T22:12:18.292Z,13.77
2023-05-16T22:14:45.723Z,10.30
2023-05-16T22:17:13.067Z,12.48
2023-05-16T22:19:42.291Z,11.07
2023-05-16T22:22:13.079Z,6.70
2023-05-16T22:24:40.384Z,8.27
2023-05-16T22:27:07.668Z,11.30
2023-05-16T22:29:38.302Z,12.15
2023-05-16T22:32:06.681Z,7.32
2023-05-16T22:34:34.724Z,7.68
2023-05-16T22:37:01.978Z,9.63
2023-05-16T22:39:29.296Z,8.80
2023-05-16T22:41:56.688Z,8.35
2023-05-16T22:44:23.929Z,10.65
2023-05-16T22:46:51.362Z,10.32
2023-05-16T22:49:19.051Z,8.43
2023-05-16T22:51:46.299Z,13.48
2023-05-16T22:54:13.549Z,9.80
2023-05-16T22:56:40.769Z,9.65
2023-05-16T22:59:07.980Z,12.25
2023-05-16T23:01:35.593Z,8.95
2023-05-16T23:04:05.588Z,9.50
2023-05-16T23:06:33.037Z,10.48
2023-05-16T23:09:00.721Z,12.40
2023-05-16T23:11:27.996Z,10.88
2023-05-16T23:13:55.420Z,10.60
2023-05-16T23:16:22.743Z,12.77
2023-05-16T23:18:50.047Z,7.47
2023-05-16T23:21:17.400Z,10.80
2023-05-16T23:23:44.601Z,9.82
2023-05-16T23:26:11.869Z,7.32
2023-05-16T23:28:39.371Z,7.50
2023-05-16T23:31:06.715Z,10.00
2023-05-16T23:33:34.047Z,12.02
2023-05-16T23:36:01.364Z,9.38
2023-05-16T23:38:28.734Z,13.38
2023-05-16T23:40:55.983Z,11.43
2023-05-16T23:43:23.328Z,11.73
2023-05-16T23:45:50.578Z,10.27
2023-05-16T23:48:17.912Z,10.77
2023-05-16T23:50:45.186Z,11.82
2023-05-16T23:53:12.397Z,9.38
2023-05-16T23:55:39.685Z,10.20
2023-05-16T23:58:06.943Z,8.60
